sensor_id;sensor_type;location;lat;lon;timestamp;P1;durP1;ratioP1;P2;durP2;ratioP2
50355;SDS011;36264;51.296;-0.602;2023-03-01T00:02:18;8.68;;;3.10;;
50355;SDS011;36264;51.296;-0.602;2023-03-01T00:04:44;6.28;;;2.90;;
50355;SDS011;36264;51.296;-0.602;2023-03-01T00:07:10;5.53;;;2.80;;
50355;SDS011;36264;51.296;-0.602;2023-03-01T00:09:35;5.95;;;3.42;;
50355;SDS011;36264;51.296;-0.602;2023-03-01T00:12:02;5.90;;;3.20;;
50355;SDS011;36264;51.296;-0.602;2023-03-01T00:14:27;6.10;;;3.72;;
50355;SDS011;36264;51.296;-0.602;2023-03-01T00:16:53;8.10;;;3.67;;
50355;SDS011;36264;51.296;-0.602;2023-03-01T00:19:19;7.50;;;3.55;;
50355;SDS011;36264;51.296;-0.602;2023-03-01T00:21:45;4.70;;;3.17;;
50355;SDS011;36264;51.296;-0.602;2023-03-01T00:24:10;5.07;;;3.20;;
50355;SDS011;36264;51.296;-0.602;2023-03-01T00:26:36;5.63;;;3.50;;
50355;SDS011;36264;51.296;-0.602;2023-03-01T00:29:01;5.78;;;3.08;;
50355;SDS011;36264;51.296;-0.602;2023-03-01T00:31:28;7.85;;;3.90;;
50355;SDS011;36264;51.296;-0.602;2023-03-01T00:33:56;6.18;;;3.22;;
50355;SDS011;36264;51.296;-0.602;2023-03-01T00:36:23;7.85;;;4.03;;
50355;SDS011;36264;51.296;-0.602;2023-03-01T00:38:52;7.15;;;3.42;;
50355;SDS011;36264;51.296;-0.602;2023-03-01T00:41:18;8.27;;;3.83;;
50355;SDS011;36264;51.296;-0.602;2023-03-01T00:43:45;6.53;;;3.70;;
50355;SDS011;36264;51.296;-0.602;2023-03-01T00:46:12;6.32;;;3.53;;
50355;SDS011;36264;51.296;-0.602;2023-03-01T00:48:39;6.07;;;3.65;;
50355;SDS011;36264;51.296;-0.602;2023-03-01T00:51:05;5.90;;;3.50;;
50355;SDS011;36264;51.296;-0.602;2023-03-01T00:53:31;7.10;;;3.75;;
50355;SDS011;36264;51.296;-0.602;2023-03-01T00:55:57;7.40;;;3.97;;
50355;SDS011;36264;51.296;-0.602;2023-03-01T00:58:23;7.78;;;4.65;;
50355;SDS011;36264;51.296;-0.602;2023-03-01T01:00:48;7.47;;;4.05;;
50355;SDS011;36264;51.296;-0.602;2023-03-01T01:03:14;8.88;;;4.47;;
50355;SDS011;36264;51.296;-0.602;2023-03-01T01:05:39;6.75;;;3.97;;
50355;SDS011;36264;51.296;-0.602;2023-03-01T01:08:04;9.75;;;4.60;;
50355;SDS011;36264;51.296;-0.602;2023-03-01T01:10:30;7.30;;;4.30;;
50355;SDS011;36264;51.296;-0.602;2023-03-01T01:12:58;6.35;;;4.18;;
50355;SDS011;36264;51.296;-0.602;2023-03-01T01:15:23;7.47;;;4.55;;
50355;SDS011;36264;51.296;-0.602;2023-03-01T01:17:48;7.95;;;4.30;;
50355;SDS011;36264;51.296;-0.602;2023-03-01T01:20:14;5.43;;;3.63;;
50355;SDS011;36264;51.296;-0.602;2023-03-01T01:22:39;6.07;;;4.20;;
50355;SDS011;36264;51.296;-0.602;2023-03-01T01:25:05;6.47;;;3.88;;
50355;SDS011;36264;51.296;-0.602;2023-03-01T01:27:30;7.28;;;4.28;;
50355;SDS011;36264;51.296;-0.602;2023-03-01T01:29:56;6.50;;;4.30;;
50355;SDS011;36264;51.296;-0.602;2023-03-01T01:32:21;8.18;;;5.28;;
50355;SDS011;36264;51.296;-0.602;2023-03-01T01:34:46;8.35;;;5.07;;
50355;SDS011;36264;51.296;-0.602;2023-03-01T01:37:12;8.32;;;5.05;;
50355;SDS011;36264;51.296;-0.602;2023-03-01T01:39:37;7.15;;;5.03;;
50355;SDS011;36264;51.296;-0.602;2023-03-01T01:42:02;7.85;;;5.13;;
50355;SDS011;36264;51.296;-0.602;2023-03-01T01:44:28;9.63;;;5.68;;
50355;SDS011;36264;51.296;-0.602;2023-03-01T01:52:10;8.27;;;5.53;;
50355;SDS011;36264;51.296;-0.602;2023-03-01T01:55:06;10.50;;;5.90;;
50355;SDS011;36264;51.296;-0.602;2023-03-01T01:57:41;8.18;;;5.10;;
50355;SDS011;36264;51.296;-0.602;2023-03-01T02:00:12;7.40;;;5.00;;
50355;SDS011;36264;51.296;-0.602;2023-03-01T02:02:40;8.43;;;4.90;;
50355;SDS011;36264;51.296;-0.602;2023-03-01T02:05:12;8.52;;;4.95;;
50355;SDS011;36264;51.296;-0.602;2023-03-01T02:07:45;6.45;;;4.82;;
50355;SDS011;36264;51.296;-0.602;2023-03-01T02:10:12;7.78;;;4.90;;
50355;SDS011;36264;51.296;-0.602;2023-03-01T02:12:38;7.13;;;4.63;;
50355;SDS011;36264;51.296;-0.602;2023-03-01T02:15:04;7.80;;;5.43;;
50355;SDS011;36264;51.296;-0.602;2023-03-01T02:17:30;8.05;;;5.20;;
50355;SDS011;36264;51.296;-0.602;2023-03-01T02:20:03;8.23;;;5.28;;
50355;SDS011;36264;51.296;-0.602;2023-03-01T02:22:32;11.57;;;5.57;;
50355;SDS011;36264;51.296;-0.602;2023-03-01T02:28:03;10.75;;;5.45;;
50355;SDS011;36264;51.296;-0.602;2023-03-01T02:30:41;8.52;;;4.97;;
50355;SDS011;36264;51.296;-0.602;2023-03-01T02:33:28;8.48;;;5.18;;
50355;SDS011;36264;51.296;-0.602;2023-03-01T02:35:58;8.10;;;5.13;;
50355;SDS011;36264;51.296;-0.602;2023-03-01T02:38:25;9.25;;;5.10;;
50355;SDS011;36264;51.296;-0.602;2023-03-01T02:40:51;9.45;;;4.93;;
50355;SDS011;36264;51.296;-0.602;2023-03-01T02:43:17;10.88;;;5.00;;
50355;SDS011;36264;51.296;-0.602;2023-03-01T02:45:51;9.52;;;5.38;;
50355;SDS011;36264;51.296;-0.602;2023-03-01T02:48:18;8.05;;;5.20;;
50355;SDS011;36264;51.296;-0.602;2023-03-01T02:53:21;8.00;;;4.78;;
50355;SDS011;36264;51.296;-0.602;2023-03-01T02:55:50;7.50;;;4.60;;
50355;SDS011;36264;51.296;-0.602;2023-03-01T02:58:15;10.52;;;5.20;;
50355;SDS011;36264;51.296;-0.602;2023-03-01T03:00:41;11.60;;;6.57;;
50355;SDS011;36264;51.296;-0.602;2023-03-01T03:03:15;15.07;;;8.45;;
50355;SDS011;36264;51.296;-0.602;2023-03-01T03:05:42;15.55;;;8.43;;
50355;SDS011;36264;51.296;-0.602;2023-03-01T03:08:08;15.45;;;8.85;;
50355;SDS011;36264;51.296;-0.602;2023-03-01T03:10:38;17.45;;;7.97;;
50355;SDS011;36264;51.296;-0.602;2023-03-01T03:13:06;12.75;;;6.80;;
50355;SDS011;36264;51.296;-0.602;2023-03-01T03:15:36;9.40;;;5.47;;
50355;SDS011;36264;51.296;-0.602;2023-03-01T03:18:05;12.05;;;5.45;;
50355;SDS011;36264;51.296;-0.602;2023-03-01T03:20:32;9.85;;;5.43;;
50355;SDS011;36264;51.296;-0.602;2023-03-01T03:22:58;10.25;;;5.38;;
50355;SDS011;36264;51.296;-0.602;2023-03-01T03:25:24;8.07;;;5.57;;
50355;SDS011;36264;51.296;-0.602;2023-03-01T03:27:50;7.45;;;4.78;;
50355;SDS011;36264;51.296;-0.602;2023-03-01T03:30:22;10.10;;;5.28;;
50355;SDS011;36264;51.296;-0.602;2023-03-01T03:32:49;6.30;;;4.32;;
50355;SDS011;36264;51.296;-0.602;2023-03-01T03:35:31;7.57;;;4.50;;
50355;SDS011;36264;51.296;-0.602;2023-03-01T03:37:59;7.55;;;4.43;;
50355;SDS011;36264;51.296;-0.602;2023-03-01T03:40:33;6.23;;;3.60;;
50355;SDS011;36264;51.296;-0.602;2023-03-01T03:43:03;8.38;;;3.25;;
50355;SDS011;36264;51.296;-0.602;2023-03-01T03:45:30;6.65;;;2.92;;
50355;SDS011;36264;51.296;-0.602;2023-03-01T03:47:58;4.47;;;2.60;;
50355;SDS011;36264;51.296;-0.602;2023-03-01T03:50:23;4.40;;;2.47;;
50355;SDS011;36264;51.296;-0.602;2023-03-01T03:52:49;4.75;;;2.40;;
50355;SDS011;36264;51.296;-0.602;2023-03-01T03:55:14;3.92;;;2.20;;
50355;SDS011;36264;51.296;-0.602;2023-03-01T03:57:44;4.05;;;2.13;;
50355;SDS011;36264;51.296;-0.602;2023-03-01T04:00:16;5.07;;;2.05;;
50355;SDS011;36264;51.296;-0.602;2023-03-01T04:02:46;3.80;;;1.90;;
50355;SDS011;36264;51.296;-0.602;2023-03-01T04:05:13;3.17;;;2.00;;
50355;SDS011;36264;51.296;-0.602;2023-03-01T04:07:40;3.22;;;1.90;;
50355;SDS011;36264;51.296;-0.602;2023-03-01T04:10:08;3.10;;;1.95;;
50355;SDS011;36264;51.296;-0.602;2023-03-01T04:12:36;3.60;;;2.17;;
50355;SDS011;36264;51.296;-0.602;2023-03-01T04:15:05;3.42;;;1.73;;
50355;SDS011;36264;51.296;-0.602;2023-03-01T04:17:44;3.60;;;1.95;;
50355;SDS011;36264;51.296;-0.602;2023-03-01T04:20:12;2.67;;;1.48;;
50355;SDS011;36264;51.296;-0.602;2023-03-01T04:22:42;2.80;;;1.65;;
50355;SDS011;36264;51.296;-0.602;2023-03-01T04:25:08;3.10;;;2.00;;
50355;SDS011;36264;51.296;-0.602;2023-03-01T04:27:34;2.63;;;1.75;;
50355;SDS011;36264;51.296;-0.602;2023-03-01T04:30:00;2.58;;;1.60;;
50355;SDS011;36264;51.296;-0.602;2023-03-01T04:32:27;1.83;;;1.35;;
50355;SDS011;36264;51.296;-0.602;2023-03-01T04:34:52;4.15;;;1.70;;
50355;SDS011;36264;51.296;-0.602;2023-03-01T04:37:19;2.20;;;1.50;;
50355;SDS011;36264;51.296;-0.602;2023-03-01T04:39:44;2.63;;;1.55;;
50355;SDS011;36264;51.296;-0.602;2023-03-01T04:42:12;4.45;;;1.77;;
50355;SDS011;36264;51.296;-0.602;2023-03-01T04:44:38;2.78;;;1.70;;
50355;SDS011;36264;51.296;-0.602;2023-03-01T04:47:04;3.63;;;2.15;;
50355;SDS011;36264;51.296;-0.602;2023-03-01T04:49:29;3.05;;;1.55;;
50355;SDS011;36264;51.296;-0.602;2023-03-01T04:51:55;2.90;;;1.40;;
50355;SDS011;36264;51.296;-0.602;2023-03-01T04:54:23;2.70;;;1.42;;
50355;SDS011;36264;51.296;-0.602;2023-03-01T04:56:48;2.30;;;1.58;;
50355;SDS011;36264;51.296;-0.602;2023-03-01T04:59:14;3.60;;;1.52;;
50355;SDS011;36264;51.296;-0.602;2023-03-01T05:01:39;3.05;;;1.63;;
50355;SDS011;36264;51.296;-0.602;2023-03-01T05:04:07;2.63;;;1.45;;
50355;SDS011;36264;51.296;-0.602;2023-03-01T05:06:37;4.53;;;1.70;;
50355;SDS011;36264;51.296;-0.602;2023-03-01T05:09:03;3.28;;;1.40;;
50355;SDS011;36264;51.296;-0.602;2023-03-01T05:11:28;3.55;;;1.38;;
50355;SDS011;36264;51.296;-0.602;2023-03-01T05:13:58;3.38;;;1.50;;
50355;SDS011;36264;51.296;-0.602;2023-03-01T05:16:24;2.63;;;1.58;;
50355;SDS011;36264;51.296;-0.602;2023-03-01T05:18:49;3.10;;;1.50;;
50355;SDS011;36264;51.296;-0.602;2023-03-01T05:21:15;2.20;;;1.42;;
50355;SDS011;36264;51.296;-0.602;2023-03-01T05:23:41;2.28;;;1.40;;
50355;SDS011;36264;51.296;-0.602;2023-03-01T05:26:08;2.83;;;1.48;;
50355;SDS011;36264;51.296;-0.602;2023-03-01T05:28:34;2.33;;;1.60;;
50355;SDS011;36264;51.296;-0.602;2023-03-01T05:31:00;2.45;;;1.67;;
50355;SDS011;36264;51.296;-0.602;2023-03-01T05:33:26;5.57;;;1.92;;
50355;SDS011;36264;51.296;-0.602;2023-03-01T05:35:51;2.38;;;1.48;;
50355;SDS011;36264;51.296;-0.602;2023-03-01T05:38:18;2.08;;;1.45;;
50355;SDS011;36264;51.296;-0.602;2023-03-01T05:40:45;4.22;;;1.40;;
50355;SDS011;36264;51.296;-0.602;2023-03-01T05:43:12;2.58;;;1.50;;
50355;SDS011;36264;51.296;-0.602;2023-03-01T05:45:39;4.70;;;1.50;;
50355;SDS011;36264;51.296;-0.602;2023-03-01T05:48:05;2.08;;;1.40;;
50355;SDS011;36264;51.296;-0.602;2023-03-01T05:50:33;5.57;;;1.52;;
50355;SDS011;36264;51.296;-0.602;2023-03-01T05:53:01;2.75;;;1.60;;
50355;SDS011;36264;51.296;-0.602;2023-03-01T05:55:32;2.67;;;1.48;;
50355;SDS011;36264;51.296;-0.602;2023-03-01T05:57:59;4.40;;;1.60;;
50355;SDS011;36264;51.296;-0.602;2023-03-01T06:00:25;3.20;;;1.35;;
50355;SDS011;36264;51.296;-0.602;2023-03-01T06:02:52;3.50;;;1.67;;
50355;SDS011;36264;51.296;-0.602;2023-03-01T06:05:19;2.75;;;1.50;;
50355;SDS011;36264;51.296;-0.602;2023-03-01T06:07:44;2.88;;;1.60;;
50355;SDS011;36264;51.296;-0.602;2023-03-01T06:10:10;4.10;;;1.42;;
50355;SDS011;36264;51.296;-0.602;2023-03-01T06:12:37;2.33;;;1.40;;
50355;SDS011;36264;51.296;-0.602;2023-03-01T06:15:04;2.10;;;1.35;;
50355;SDS011;36264;51.296;-0.602;2023-03-01T06:17:31;3.17;;;1.50;;
50355;SDS011;36264;51.296;-0.602;2023-03-01T06:20:00;3.83;;;1.52;;
50355;SDS011;36264;51.296;-0.602;2023-03-01T06:22:26;2.92;;;1.58;;
50355;SDS011;36264;51.296;-0.602;2023-03-01T06:24:52;4.15;;;1.60;;
50355;SDS011;36264;51.296;-0.602;2023-03-01T06:27:17;2.03;;;1.27;;
50355;SDS011;36264;51.296;-0.602;2023-03-01T06:29:42;4.43;;;1.67;;
50355;SDS011;36264;51.296;-0.602;2023-03-01T06:32:08;2.28;;;1.52;;
50355;SDS011;36264;51.296;-0.602;2023-03-01T06:34:33;2.97;;;1.30;;
50355;SDS011;36264;51.296;-0.602;2023-03-01T06:36:59;2.47;;;1.50;;
50355;SDS011;36264;51.296;-0.602;2023-03-01T06:39:24;2.50;;;1.60;;
50355;SDS011;36264;51.296;-0.602;2023-03-01T06:41:50;4.57;;;1.90;;
50355;SDS011;36264;51.296;-0.602;2023-03-01T06:44:15;4.35;;;1.65;;
50355;SDS011;36264;51.296;-0.602;2023-03-01T06:46:40;2.95;;;1.70;;
50355;SDS011;36264;51.296;-0.602;2023-03-01T06:49:06;3.13;;;1.50;;
50355;SDS011;36264;51.296;-0.602;2023-03-01T06:51:34;2.30;;;1.40;;
50355;SDS011;36264;51.296;-0.602;2023-03-01T06:54:01;3.60;;;1.70;;
50355;SDS011;36264;51.296;-0.602;2023-03-01T06:56:27;3.72;;;1.50;;
50355;SDS011;36264;51.296;-0.602;2023-03-01T06:58:53;4.32;;;1.88;;
50355;SDS011;36264;51.296;-0.602;2023-03-01T07:01:18;4.05;;;1.70;;
50355;SDS011;36264;51.296;-0.602;2023-03-01T07:03:43;3.47;;;1.58;;
50355;SDS011;36264;51.296;-0.602;2023-03-01T07:06:09;3.67;;;1.90;;
50355;SDS011;36264;51.296;-0.602;2023-03-01T07:08:35;3.13;;;1.58;;
50355;SDS011;36264;51.296;-0.602;2023-03-01T07:11:00;4.75;;;1.70;;
50355;SDS011;36264;51.296;-0.602;2023-03-01T07:13:27;2.85;;;1.70;;
50355;SDS011;36264;51.296;-0.602;2023-03-01T07:15:53;6.35;;;1.80;;
50355;SDS011;36264;51.296;-0.602;2023-03-01T07:18:18;4.75;;;1.95;;
50355;SDS011;36264;51.296;-0.602;2023-03-01T07:20:43;2.95;;;1.60;;
50355;SDS011;36264;51.296;-0.602;2023-03-01T07:23:09;4.40;;;1.60;;
50355;SDS011;36264;51.296;-0.602;2023-03-01T07:25:34;5.20;;;2.08;;
50355;SDS011;36264;51.296;-0.602;2023-03-01T07:28:00;3.53;;;1.77;;
50355;SDS011;36264;51.296;-0.602;2023-03-01T07:30:25;3.20;;;1.70;;
50355;SDS011;36264;51.296;-0.602;2023-03-01T07:32:53;2.70;;;1.70;;
50355;SDS011;36264;51.296;-0.602;2023-03-01T07:35:20;4.50;;;1.77;;
50355;SDS011;36264;51.296;-0.602;2023-03-01T07:37:46;4.13;;;1.75;;
50355;SDS011;36264;51.296;-0.602;2023-03-01T07:40:11;3.13;;;1.85;;
50355;SDS011;36264;51.296;-0.602;2023-03-01T07:42:37;3.65;;;1.90;;
50355;SDS011;36264;51.296;-0.602;2023-03-01T07:45:03;3.78;;;1.83;;
50355;SDS011;36264;51.296;-0.602;2023-03-01T07:47:29;4.07;;;1.80;;
50355;SDS011;36264;51.296;-0.602;2023-03-01T07:49:55;4.55;;;1.85;;
50355;SDS011;36264;51.296;-0.602;2023-03-01T07:52:20;3.10;;;1.70;;
50355;SDS011;36264;51.296;-0.602;2023-03-01T07:54:45;3.65;;;1.80;;
50355;SDS011;36264;51.296;-0.602;2023-03-01T07:57:11;3.60;;;1.90;;
50355;SDS011;36264;51.296;-0.602;2023-03-01T07:59:36;2.58;;;1.73;;
50355;SDS011;36264;51.296;-0.602;2023-03-01T08:02:02;3.40;;;1.63;;
50355;SDS011;36264;51.296;-0.602;2023-03-01T08:04:27;5.10;;;1.80;;
50355;SDS011;36264;51.296;-0.602;2023-03-01T08:06:53;4.30;;;1.85;;
50355;SDS011;36264;51.296;-0.602;2023-03-01T08:09:19;3.78;;;2.00;;
50355;SDS011;36264;51.296;-0.602;2023-03-01T08:11:45;3.45;;;1.75;;
50355;SDS011;36264;51.296;-0.602;2023-03-01T08:14:11;3.33;;;1.75;;
50355;SDS011;36264;51.296;-0.602;2023-03-01T08:16:36;5.65;;;2.00;;
50355;SDS011;36264;51.296;-0.602;2023-03-01T08:19:05;3.55;;;1.60;;
50355;SDS011;36264;51.296;-0.602;2023-03-01T08:21:32;4.38;;;2.00;;
50355;SDS011;36264;51.296;-0.602;2023-03-01T08:23:59;5.95;;;2.22;;
50355;SDS011;36264;51.296;-0.602;2023-03-01T08:26:26;4.43;;;1.90;;
50355;SDS011;36264;51.296;-0.602;2023-03-01T08:28:51;5.78;;;2.03;;
50355;SDS011;36264;51.296;-0.602;2023-03-01T08:33:47;3.33;;;1.80;;
50355;SDS011;36264;51.296;-0.602;2023-03-01T08:36:15;4.93;;;1.90;;
50355;SDS011;36264;51.296;-0.602;2023-03-01T08:38:42;3.28;;;1.90;;
50355;SDS011;36264;51.296;-0.602;2023-03-01T08:41:07;6.72;;;2.58;;
50355;SDS011;36264;51.296;-0.602;2023-03-01T08:43:32;3.72;;;1.80;;
50355;SDS011;36264;51.296;-0.602;2023-03-01T08:45:58;5.53;;;1.90;;
50355;SDS011;36264;51.296;-0.602;2023-03-01T08:48:23;5.32;;;2.00;;
50355;SDS011;36264;51.296;-0.602;2023-03-01T08:50:49;5.63;;;1.90;;
50355;SDS011;36264;51.296;-0.602;2023-03-01T08:53:15;7.10;;;2.20;;
50355;SDS011;36264;51.296;-0.602;2023-03-01T08:55:40;6.88;;;1.63;;
50355;SDS011;36264;51.296;-0.602;2023-03-01T08:58:05;4.70;;;2.00;;
50355;SDS011;36264;51.296;-0.602;2023-03-01T09:00:31;6.28;;;1.85;;
50355;SDS011;36264;51.296;-0.602;2023-03-01T09:02:59;4.90;;;1.90;;
50355;SDS011;36264;51.296;-0.602;2023-03-01T09:05:24;3.55;;;2.17;;
50355;SDS011;36264;51.296;-0.602;2023-03-01T09:07:50;6.03;;;1.60;;
50355;SDS011;36264;51.296;-0.602;2023-03-01T09:10:15;4.60;;;2.10;;
50355;SDS011;36264;51.296;-0.602;2023-03-01T09:12:41;3.78;;;1.90;;
50355;SDS011;36264;51.296;-0.602;2023-03-01T09:15:06;3.35;;;1.65;;
50355;SDS011;36264;51.296;-0.602;2023-03-01T09:17:33;3.22;;;1.70;;
50355;SDS011;36264;51.296;-0.602;2023-03-01T09:19:58;6.35;;;1.80;;
50355;SDS011;36264;51.296;-0.602;2023-03-01T09:22:24;4.63;;;1.75;;
50355;SDS011;36264;51.296;-0.602;2023-03-01T09:24:50;5.05;;;2.03;;
50355;SDS011;36264;51.296;-0.602;2023-03-01T09:27:15;4.80;;;2.00;;
50355;SDS011;36264;51.296;-0.602;2023-03-01T09:29:43;4.50;;;1.70;;
50355;SDS011;36264;51.296;-0.602;2023-03-01T09:32:09;5.25;;;1.80;;
50355;SDS011;36264;51.296;-0.602;2023-03-01T09:34:35;3.85;;;1.90;;
50355;SDS011;36264;51.296;-0.602;2023-03-01T09:37:20;2.70;;;1.40;;
50355;SDS011;36264;51.296;-0.602;2023-03-01T09:39:45;3.25;;;1.65;;
50355;SDS011;36264;51.296;-0.602;2023-03-01T09:42:11;2.15;;;1.48;;
50355;SDS011;36264;51.296;-0.602;2023-03-01T09:44:55;3.35;;;1.70;;
50355;SDS011;36264;51.296;-0.602;2023-03-01T09:47:45;3.63;;;1.60;;
50355;SDS011;36264;51.296;-0.602;2023-03-01T09:50:17;4.20;;;1.65;;
50355;SDS011;36264;51.296;-0.602;2023-03-01T09:55:43;3.67;;;1.38;;
50355;SDS011;36264;51.296;-0.602;2023-03-01T09:58:29;2.92;;;1.38;;
50355;SDS011;36264;51.296;-0.602;2023-03-01T10:06:47;2.25;;;1.38;;
50355;SDS011;36264;51.296;-0.602;2023-03-01T10:09:20;1.92;;;1.30;;
50355;SDS011;36264;51.296;-0.602;2023-03-01T10:11:50;5.30;;;1.55;;
50355;SDS011;36264;51.296;-0.602;2023-03-01T10:17:04;3.33;;;1.20;;
50355;SDS011;36264;51.296;-0.602;2023-03-01T10:19:44;2.33;;;1.20;;
50355;SDS011;36264;51.296;-0.602;2023-03-01T10:24:36;4.20;;;1.40;;
50355;SDS011;36264;51.296;-0.602;2023-03-01T10:27:24;2.55;;;1.20;;
50355;SDS011;36264;51.296;-0.602;2023-03-01T10:32:31;2.38;;;1.08;;
50355;SDS011;36264;51.296;-0.602;2023-03-01T10:34:56;1.67;;;0.88;;
50355;SDS011;36264;51.296;-0.602;2023-03-01T10:37:22;1.17;;;0.93;;
50355;SDS011;36264;51.296;-0.602;2023-03-01T10:40:06;2.35;;;1.33;;
50355;SDS011;36264;51.296;-0.602;2023-03-01T10:42:38;2.25;;;1.00;;
50355;SDS011;36264;51.296;-0.602;2023-03-01T10:45:15;1.50;;;0.98;;
50355;SDS011;36264;51.296;-0.602;2023-03-01T10:47:41;3.08;;;1.20;;
50355;SDS011;36264;51.296;-0.602;2023-03-01T10:50:09;1.75;;;1.27;;
50355;SDS011;36264;51.296;-0.602;2023-03-01T10:52:44;4.53;;;1.38;;
50355;SDS011;36264;51.296;-0.602;2023-03-01T10:58:06;2.47;;;1.20;;
50355;SDS011;36264;51.296;-0.602;2023-03-01T11:00:33;1.92;;;1.15;;
50355;SDS011;36264;51.296;-0.602;2023-03-01T11:03:33;2.28;;;1.08;;
50355;SDS011;36264;51.296;-0.602;2023-03-01T11:08:39;2.10;;;1.13;;
50355;SDS011;36264;51.296;-0.602;2023-03-01T11:13:34;2.05;;;0.93;;
50355;SDS011;36264;51.296;-0.602;2023-03-01T11:18:27;1.85;;;1.00;;
50355;SDS011;36264;51.296;-0.602;2023-03-01T11:20:54;2.75;;;1.30;;
50355;SDS011;36264;51.296;-0.602;2023-03-01T11:23:22;2.70;;;1.23;;
50355;SDS011;36264;51.296;-0.602;2023-03-01T11:25:54;2.97;;;1.23;;
50355;SDS011;36264;51.296;-0.602;2023-03-01T11:28:21;1.30;;;1.10;;
50355;SDS011;36264;51.296;-0.602;2023-03-01T11:30:50;3.17;;;1.30;;
50355;SDS011;36264;51.296;-0.602;2023-03-01T11:36:01;1.77;;;1.13;;
50355;SDS011;36264;51.296;-0.602;2023-03-01T11:38:31;2.95;;;1.30;;
50355;SDS011;36264;51.296;-0.602;2023-03-01T12:06:39;3.33;;;1.50;;
50355;SDS011;36264;51.296;-0.602;2023-03-01T12:25:38;3.53;;;1.05;;
50355;SDS011;36264;51.296;-0.602;2023-03-01T12:38:45;3.47;;;1.20;;
50355;SDS011;36264;51.296;-0.602;2023-03-01T12:49:41;3.17;;;1.33;;
50355;SDS011;36264;51.296;-0.602;2023-03-01T12:52:16;2.22;;;1.33;;
50355;SDS011;36264;51.296;-0.602;2023-03-01T12:54:44;3.72;;;1.23;;
50355;SDS011;36264;51.296;-0.602;2023-03-01T13:00:22;4.15;;;1.52;;
50355;SDS011;36264;51.296;-0.602;2023-03-01T13:03:03;2.90;;;1.45;;
50355;SDS011;36264;51.296;-0.602;2023-03-01T13:08:35;3.70;;;1.35;;
50355;SDS011;36264;51.296;-0.602;2023-03-01T13:11:18;3.55;;;1.80;;
50355;SDS011;36264;51.296;-0.602;2023-03-01T13:13:46;3.95;;;1.90;;
50355;SDS011;36264;51.296;-0.602;2023-03-01T13:19:13;3.83;;;1.65;;
50355;SDS011;36264;51.296;-0.602;2023-03-01T13:21:47;5.55;;;2.03;;
50355;SDS011;36264;51.296;-0.602;2023-03-01T13:29:45;2.38;;;1.70;;
50355;SDS011;36264;51.296;-0.602;2023-03-01T13:32:22;3.47;;;1.60;;
50355;SDS011;36264;51.296;-0.602;2023-03-01T13:37:39;6.03;;;1.52;;
50355;SDS011;36264;51.296;-0.602;2023-03-01T13:40:55;4.93;;;1.63;;
50355;SDS011;36264;51.296;-0.602;2023-03-01T13:42:51;3.85;;;1.42;;
50355;SDS011;36264;51.296;-0.602;2023-03-01T13:48:08;2.60;;;1.45;;
50355;SDS011;36264;51.296;-0.602;2023-03-01T13:50:43;3.80;;;1.55;;
50355;SDS011;36264;51.296;-0.602;2023-03-01T13:53:15;3.92;;;1.55;;
50355;SDS011;36264;51.296;-0.602;2023-03-01T14:01:00;4.43;;;1.80;;
50355;SDS011;36264;51.296;-0.602;2023-03-01T14:03:31;4.18;;;1.92;;
50355;SDS011;36264;51.296;-0.602;2023-03-01T14:05:59;3.78;;;1.80;;
50355;SDS011;36264;51.296;-0.602;2023-03-01T14:08:33;6.10;;;2.63;;
50355;SDS011;36264;51.296;-0.602;2023-03-01T14:19:30;5.60;;;1.73;;
50355;SDS011;36264;51.296;-0.602;2023-03-01T14:22:01;4.93;;;1.75;;
50355;SDS011;36264;51.296;-0.602;2023-03-01T14:24:38;4.97;;;2.00;;
50355;SDS011;36264;51.296;-0.602;2023-03-01T14:27:11;6.78;;;2.42;;
50355;SDS011;36264;51.296;-0.602;2023-03-01T14:29:38;7.78;;;3.53;;
50355;SDS011;36264;51.296;-0.602;2023-03-01T14:32:20;6.75;;;3.00;;
50355;SDS011;36264;51.296;-0.602;2023-03-01T14:34:49;6.65;;;2.50;;
50355;SDS011;36264;51.296;-0.602;2023-03-01T14:37:20;8.20;;;3.92;;
50355;SDS011;36264;51.296;-0.602;2023-03-01T14:39:51;11.65;;;4.32;;
50355;SDS011;36264;51.296;-0.602;2023-03-01T14:42:18;7.28;;;2.60;;
50355;SDS011;36264;51.296;-0.602;2023-03-01T14:44:46;9.50;;;3.75;;
50355;SDS011;36264;51.296;-0.602;2023-03-01T14:47:14;7.10;;;2.90;;
50355;SDS011;36264;51.296;-0.602;2023-03-01T14:49:44;8.18;;;2.10;;
50355;SDS011;36264;51.296;-0.602;2023-03-01T14:52:45;7.50;;;2.30;;
50355;SDS011;36264;51.296;-0.602;2023-03-01T14:55:13;8.48;;;3.17;;
50355;SDS011;36264;51.296;-0.602;2023-03-01T14:57:45;5.68;;;2.42;;
50355;SDS011;36264;51.296;-0.602;2023-03-01T15:00:23;5.35;;;2.25;;
50355;SDS011;36264;51.296;-0.602;2023-03-01T15:02:52;12.05;;;5.03;;
50355;SDS011;36264;51.296;-0.602;2023-03-01T15:05:25;6.50;;;3.10;;
50355;SDS011;36264;51.296;-0.602;2023-03-01T15:07:53;5.55;;;2.30;;
50355;SDS011;36264;51.296;-0.602;2023-03-01T15:10:25;5.75;;;2.45;;
50355;SDS011;36264;51.296;-0.602;2023-03-01T15:12:52;4.28;;;2.13;;
50355;SDS011;36264;51.296;-0.602;2023-03-01T15:15:26;6.10;;;2.30;;
50355;SDS011;36264;51.296;-0.602;2023-03-01T15:18:02;7.05;;;2.80;;
50355;SDS011;36264;51.296;-0.602;2023-03-01T15:20:30;10.65;;;3.10;;
50355;SDS011;36264;51.296;-0.602;2023-03-01T15:23:00;6.40;;;3.08;;
50355;SDS011;36264;51.296;-0.602;2023-03-01T15:25:27;5.03;;;2.10;;
50355;SDS011;36264;51.296;-0.602;2023-03-01T15:27:54;5.47;;;2.30;;
50355;SDS011;36264;51.296;-0.602;2023-03-01T15:30:22;4.63;;;2.30;;
50355;SDS011;36264;51.296;-0.602;2023-03-01T15:35:50;3.55;;;1.80;;
50355;SDS011;36264;51.296;-0.602;2023-03-01T15:38:24;5.20;;;1.77;;
50355;SDS011;36264;51.296;-0.602;2023-03-01T15:40:52;5.10;;;1.80;;
50355;SDS011;36264;51.296;-0.602;2023-03-01T15:44:00;4.20;;;1.58;;
50355;SDS011;36264;51.296;-0.602;2023-03-01T15:46:24;4.78;;;1.60;;
50355;SDS011;36264;51.296;-0.602;2023-03-01T15:48:57;6.25;;;2.13;;
50355;SDS011;36264;51.296;-0.602;2023-03-01T15:53:56;9.35;;;3.35;;
50355;SDS011;36264;51.296;-0.602;2023-03-01T15:56:26;3.70;;;1.92;;
50355;SDS011;36264;51.296;-0.602;2023-03-01T15:58:51;3.75;;;1.98;;
50355;SDS011;36264;51.296;-0.602;2023-03-01T16:01:17;4.80;;;2.83;;
50355;SDS011;36264;51.296;-0.602;2023-03-01T16:03:43;7.65;;;3.58;;
50355;SDS011;36264;51.296;-0.602;2023-03-01T16:06:09;5.28;;;2.33;;
50355;SDS011;36264;51.296;-0.602;2023-03-01T16:08:36;6.63;;;3.03;;
50355;SDS011;36264;51.296;-0.602;2023-03-01T16:11:03;8.00;;;3.33;;
50355;SDS011;36264;51.296;-0.602;2023-03-01T16:13:30;4.32;;;2.40;;
50355;SDS011;36264;51.296;-0.602;2023-03-01T16:15:56;8.95;;;4.18;;
50355;SDS011;36264;51.296;-0.602;2023-03-01T16:18:22;3.45;;;2.10;;
50355;SDS011;36264;51.296;-0.602;2023-03-01T16:20:47;4.55;;;2.10;;
50355;SDS011;36264;51.296;-0.602;2023-03-01T16:23:14;8.93;;;4.43;;
50355;SDS011;36264;51.296;-0.602;2023-03-01T16:25:40;6.63;;;3.40;;
50355;SDS011;36264;51.296;-0.602;2023-03-01T16:28:06;6.40;;;2.95;;
50355;SDS011;36264;51.296;-0.602;2023-03-01T16:30:35;7.50;;;2.65;;
50355;SDS011;36264;51.296;-0.602;2023-03-01T16:33:02;7.40;;;2.97;;
50355;SDS011;36264;51.296;-0.602;2023-03-01T16:35:27;6.30;;;2.92;;
50355;SDS011;36264;51.296;-0.602;2023-03-01T16:37:54;5.75;;;2.75;;
50355;SDS011;36264;51.296;-0.602;2023-03-01T16:40:23;8.50;;;4.15;;
50355;SDS011;36264;51.296;-0.602;2023-03-01T16:42:51;4.13;;;2.25;;
50355;SDS011;36264;51.296;-0.602;2023-03-01T16:45:18;5.13;;;2.47;;
50355;SDS011;36264;51.296;-0.602;2023-03-01T16:47:43;3.88;;;2.25;;
50355;SDS011;36264;51.296;-0.602;2023-03-01T16:50:09;4.90;;;2.63;;
50355;SDS011;36264;51.296;-0.602;2023-03-01T16:52:35;6.28;;;3.20;;
50355;SDS011;36264;51.296;-0.602;2023-03-01T16:55:02;7.90;;;2.53;;
50355;SDS011;36264;51.296;-0.602;2023-03-01T16:57:28;5.65;;;2.28;;
50355;SDS011;36264;51.296;-0.602;2023-03-01T16:59:55;8.20;;;3.70;;
50355;SDS011;36264;51.296;-0.602;2023-03-01T17:02:20;6.18;;;2.80;;
50355;SDS011;36264;51.296;-0.602;2023-03-01T17:04:51;6.07;;;2.75;;